createdAt,value
2022-10-11T00:00:25.611Z,101622.97
2022-10-11T00:05:28.679Z,101628.69
2022-10-11T00:10:32.991Z,101632.94
2022-10-11T00:15:36.212Z,101637.84
2022-10-11T00:20:38.942Z,101646.31
2022-10-11T00:25:43.078Z,101655.72
2022-10-11T00:30:45.778Z,101659.72
2022-10-11T00:35:48.711Z,101656.88
2022-10-11T00:40:52.923Z,101659.28
2022-10-11T00:46:27.509Z,101665.59
2022-10-11T00:51:40.282Z,101670.72
2022-10-11T00:56:49.083Z,101678.47
2022-10-11T01:01:52.157Z,101681.91
2022-10-11T01:06:55.993Z,101679.97
2022-10-11T01:12:03.184Z,101682.50
2022-10-11T01:17:19.742Z,101687.53
2022-10-11T01:22:46.682Z,101685.59
2022-10-11T01:28:21.332Z,101701.00
2022-10-11T01:33:32.459Z,101695.16
2022-10-11T01:38:43.886Z,101709.78
2022-10-11T01:43:48.206Z,101708.63
2022-10-11T01:48:54.314Z,101720.75
2022-10-11T01:54:22.641Z,101720.75
2022-10-11T01:59:43.247Z,101722.91
2022-10-11T02:04:53.341Z,101726.00
2022-10-11T02:10:02.146Z,101735.34
2022-10-11T02:15:09.511Z,101745.59
2022-10-11T02:20:18.719Z,101751.53
2022-10-11T02:25:25.745Z,101748.69
2022-10-11T02:30:30.169Z,101753.72
2022-10-11T02:35:42.448Z,101753.72
2022-10-11T02:40:48.435Z,101761.22
2022-10-11T02:45:55.394Z,101775.03
2022-10-11T02:51:00.036Z,101771.38
2022-10-11T02:56:03.125Z,101777.31
2022-10-11T03:01:06.474Z,101786.63
2022-10-11T03:06:10.908Z,101794.28
2022-10-11T03:11:13.615Z,101794.03
2022-10-11T03:16:16.325Z,101798.16
2022-10-11T03:21:20.412Z,101807.59
2022-10-11T03:26:23.196Z,101804.75
2022-10-11T03:31:25.906Z,101830.84
2022-10-11T03:36:30.005Z,101824.44
2022-10-11T03:41:32.894Z,101838.34
2022-10-11T03:46:35.703Z,101832.19
2022-10-11T03:51:39.747Z,101839.94
2022-10-11T03:56:42.457Z,101846.91
2022-10-11T04:01:45.269Z,101859.88
2022-10-11T04:06:49.354Z,101869.59
2022-10-11T04:11:52.069Z,101866.03
2022-10-11T04:16:58.354Z,101869.47
2022-10-11T04:22:04.519Z,101877.34
2022-10-11T04:27:07.288Z,101887.56
2022-10-11T04:32:09.985Z,101892.56
2022-10-11T04:37:14.110Z,101895.06
2022-10-11T04:42:17.395Z,101907.16
2022-10-11T04:47:20.203Z,101911.34
2022-10-11T04:52:25.913Z,101921.69
2022-10-11T04:57:28.885Z,101923.28
2022-10-11T05:02:31.635Z,101927.47
2022-10-11T05:07:35.755Z,101938.66
2022-10-11T05:12:38.584Z,101944.69
2022-10-11T05:17:41.274Z,101952.31
2022-10-11T05:22:45.347Z,101963.31
2022-10-11T05:27:48.039Z,101958.88
2022-10-11T05:32:50.734Z,101971.97
2022-10-11T05:37:54.871Z,101973.44
2022-10-11T05:42:57.605Z,101981.19
2022-10-11T05:48:00.651Z,101989.69
2022-10-11T05:53:05.982Z,101997.44
2022-10-11T05:58:11.580Z,102007.91
2022-10-11T06:03:16.598Z,102015.00
2022-10-11T06:08:20.667Z,102022.69
2022-10-11T06:13:23.349Z,102015.78
2022-10-11T06:18:26.121Z,102028.22
2022-10-11T06:23:30.465Z,102037.25
2022-10-11T06:28:34.245Z,102044.31
2022-10-11T06:33:37.633Z,102056.78
2022-10-11T06:38:44.903Z,102061.59
2022-10-11T06:43:49.388Z,102063.66
2022-10-11T06:48:52.310Z,102071.13
2022-10-11T06:53:58.534Z,102083.19
2022-10-11T06:59:01.454Z,102085.38
2022-10-11T07:04:04.364Z,102087.84
2022-10-11T07:09:08.920Z,102090.31
2022-10-11T07:14:11.641Z,102099.72
2022-10-11T07:19:14.402Z,102099.00
2022-10-11T07:24:18.532Z,102109.81
2022-10-11T07:29:21.233Z,102111.97
2022-10-11T07:34:23.942Z,102104.81
2022-10-11T07:39:28.069Z,102115.28
2022-10-11T07:44:31.002Z,102114.31
2022-10-11T07:49:33.711Z,102116.66
2022-10-11T07:54:37.853Z,102119.78
2022-10-11T07:59:42.664Z,102120.34
2022-10-11T08:04:47.446Z,102125.25
2022-10-11T08:09:52.870Z,102122.63
2022-10-11T08:14:55.879Z,102123.19
2022-10-11T08:19:58.592Z,102115.00
2022-10-11T08:25:02.730Z,102126.16
2022-10-11T08:30:06.672Z,102120.47
2022-10-11T08:35:09.751Z,102126.25
2022-10-11T08:40:17.143Z,102127.81
2022-10-11T08:45:30.346Z,102131.72
2022-10-11T08:50:33.355Z,102133.69
2022-10-11T08:55:43.928Z,102134.94
2022-10-11T09:00:49.620Z,102140.50
2022-10-11T09:06:04.605Z,102142.41
2022-10-11T09:11:18.083Z,102147.69
2022-10-11T09:16:33.991Z,102153.84
2022-10-11T09:21:43.135Z,102157.25
2022-10-11T09:26:56.113Z,102169.41
2022-10-11T09:32:00.010Z,102162.81
2022-10-11T09:37:12.423Z,102170.84
2022-10-11T09:42:16.488Z,102169.69
2022-10-11T09:47:22.989Z,102163.31
2022-10-11T09:52:27.148Z,102171.69
2022-10-11T09:57:33.631Z,102180.38
2022-10-11T10:02:42.062Z,102182.81
2022-10-11T10:08:04.798Z,102172.63
2022-10-11T10:13:21.901Z,102189.03
2022-10-11T10:18:28.444Z,102187.69
2022-10-11T10:23:33.257Z,102185.47
2022-10-11T10:28:37.549Z,102198.72
2022-10-11T10:33:40.575Z,102197.69
2022-10-11T10:38:52.343Z,102197.00
2022-10-11T10:44:00.339Z,102196.38
2022-10-11T10:49:41.196Z,102197.34
2022-10-11T10:54:45.165Z,102202.56
2022-10-11T11:00:02.336Z,102197.63
2022-10-11T11:05:17.492Z,102201.19
2022-10-11T11:10:24.032Z,102194.16
2022-10-11T11:15:38.207Z,102205.34
2022-10-11T11:20:53.177Z,102190.69
2022-10-11T11:26:07.925Z,102195.78
2022-10-11T11:31:28.126Z,102197.41
2022-10-11T11:36:46.511Z,102203.03
2022-10-11T11:41:54.501Z,102192.94
2022-10-11T11:47:03.404Z,102196.34
2022-10-11T11:52:08.886Z,102191.63
2022-10-11T11:57:24.681Z,102184.69
2022-10-11T12:02:44.414Z,102183.75
2022-10-11T12:07:55.113Z,102187.00
2022-10-11T12:13:18.744Z,102190.56
2022-10-11T12:18:23.494Z,102186.72
2022-10-11T12:23:52.046Z,102191.88
2022-10-11T12:29:36.118Z,102189.34
2022-10-11T12:34:42.036Z,102194.88
2022-10-11T12:39:51.773Z,102191.47
2022-10-11T12:45:34.989Z,102196.91
2022-10-11T12:50:51.345Z,102189.84
2022-10-11T12:56:02.444Z,102192.41
2022-10-11T13:01:18.722Z,102192.41
2022-10-11T13:06:25.815Z,102184.06
2022-10-11T13:11:32.301Z,102195.72
2022-10-11T13:16:48.884Z,102194.81
2022-10-11T13:21:55.621Z,102199.06
2022-10-11T13:26:59.058Z,102186.38
2022-10-11T13:32:04.666Z,102188.13
2022-10-11T13:37:13.869Z,102189.47
2022-10-11T13:42:19.296Z,102200.16
2022-10-11T13:47:27.667Z,102200.91
2022-10-11T13:52:31.741Z,102199.44
2022-10-11T13:57:38.429Z,102193.88
2022-10-11T14:02:47.966Z,102187.50
2022-10-11T14:07:52.130Z,102188.38
2022-10-11T14:13:08.044Z,102188.09
2022-10-11T14:18:34.665Z,102189.09
2022-10-11T14:23:38.870Z,102199.41
2022-10-11T14:28:41.774Z,102196.44
2022-10-11T14:33:44.799Z,102195.19
2022-10-11T14:38:48.909Z,102190.97
2022-10-11T14:43:51.719Z,102187.19
2022-10-11T14:48:56.240Z,102190.44
2022-10-11T14:54:00.728Z,102188.06
2022-10-11T14:59:03.565Z,102195.88
2022-10-11T15:04:06.389Z,102199.81
2022-10-11T15:09:10.743Z,102200.81
2022-10-11T15:14:13.527Z,102202.31
2022-10-11T15:19:17.898Z,102220.88
2022-10-11T15:24:22.014Z,102219.91
2022-10-11T15:29:24.707Z,102220.53
2022-10-11T15:34:27.515Z,102226.09
2022-10-11T15:39:33.684Z,102230.75
2022-10-11T15:44:36.413Z,102234.28
2022-10-11T15:49:39.326Z,102234.84
2022-10-11T15:54:43.416Z,102240.22
2022-10-11T15:59:46.145Z,102230.81
2022-10-11T16:04:48.926Z,102236.38
2022-10-11T16:09:52.986Z,102233.63
2022-10-11T16:14:55.846Z,102236.94
2022-10-11T16:19:58.594Z,102232.47
2022-10-11T16:25:02.749Z,102229.44
2022-10-11T16:30:06.172Z,102242.38
2022-10-11T16:35:10.405Z,102250.03
2022-10-11T16:40:17.625Z,102252.09
2022-10-11T16:45:20.481Z,102248.97
2022-10-11T16:50:23.264Z,102257.81
2022-10-11T16:55:27.668Z,102253.16
2022-10-11T17:00:30.443Z,102257.31
2022-10-11T17:05:34.114Z,102258.88
2022-10-11T17:10:40.138Z,102261.41
2022-10-11T17:15:42.869Z,102256.94
2022-10-11T17:20:45.615Z,102252.25
2022-10-11T17:25:49.675Z,102257.38
2022-10-11T17:30:56.580Z,102260.53
2022-10-11T17:36:01.199Z,102260.09
2022-10-11T17:41:08.282Z,102262.47
2022-10-11T17:46:13.650Z,102259.53
2022-10-11T17:51:18.794Z,102267.13
2022-10-11T17:56:28.754Z,102258.00
2022-10-11T18:01:32.497Z,102264.91
2022-10-11T18:06:39.881Z,102261.16
2022-10-11T18:11:44.455Z,102261.47
2022-10-11T18:16:47.228Z,102250.38
2022-10-11T18:21:49.937Z,102251.81
2022-10-11T18:26:53.996Z,102255.16
2022-10-11T18:31:56.687Z,102255.88
2022-10-11T18:36:59.371Z,102252.22
2022-10-11T18:42:04.597Z,102259.34
2022-10-11T18:47:07.320Z,102251.31
2022-10-11T18:52:10.021Z,102254.75
2022-10-11T18:57:14.147Z,102259.94
2022-10-11T19:02:16.944Z,102262.50
2022-10-11T19:07:19.679Z,102271.31
2022-10-11T19:12:23.771Z,102264.09
2022-10-11T19:17:26.487Z,102266.63
2022-10-11T19:22:29.188Z,102266.34
2022-10-11T19:27:33.260Z,102267.34
2022-10-11T19:32:36.365Z,102274.25
2022-10-11T19:37:39.620Z,102272.31
2022-10-11T19:42:43.665Z,102274.84
2022-10-11T19:47:46.351Z,102273.00
2022-10-11T19:52:49.031Z,102278.09
2022-10-11T19:57:53.138Z,102274.53
2022-10-11T20:02:55.844Z,102279.53
2022-10-11T20:07:58.538Z,102278.59
2022-10-11T20:13:02.690Z,102276.69
2022-10-11T20:18:05.710Z,102273.00
2022-10-11T20:23:08.425Z,102278.88
2022-10-11T20:28:12.514Z,102281.31
2022-10-11T20:33:15.275Z,102278.47
2022-10-11T20:38:17.982Z,102269.31
2022-10-11T20:43:22.681Z,102278.84
2022-10-11T20:48:25.390Z,102277.75
2022-10-11T20:53:28.998Z,102281.19
2022-10-11T20:58:33.086Z,102274.88
2022-10-11T21:03:35.788Z,102277.28
2022-10-11T21:08:39.858Z,102280.75
2022-10-11T21:13:43.911Z,102284.09
2022-10-11T21:18:51.644Z,102288.22
2022-10-11T21:23:55.860Z,102281.94
2022-10-11T21:29:00.159Z,102287.22
2022-10-11T21:34:03.903Z,102296.97
2022-10-11T21:39:06.611Z,102289.75
2022-10-11T21:44:10.831Z,102300.50
2022-10-11T21:49:13.505Z,102297.53
2022-10-11T21:54:16.301Z,102305.81
2022-10-11T21:59:20.361Z,102299.97
2022-10-11T22:04:23.354Z,102300.97
2022-10-11T22:09:27.682Z,102299.28
2022-10-11T22:14:31.805Z,102302.75
2022-10-11T22:19:34.496Z,102294.16
2022-10-11T22:24:37.184Z,102296.03
2022-10-11T22:29:41.242Z,102301.53
2022-10-11T22:34:44.241Z,102297.53
2022-10-11T22:39:46.933Z,102306.72
2022-10-11T22:44:50.980Z,102299.63
2022-10-11T22:49:53.729Z,102299.69
2022-10-11T22:54:56.444Z,102297.91
2022-10-11T23:00:00.494Z,102315.34
2022-10-11T23:05:03.295Z,102313.72
2022-10-11T23:10:06.833Z,102313.59
2022-10-11T23:15:12.111Z,102320.50
2022-10-11T23:20:14.808Z,102330.31
2022-10-11T23:25:17.626Z,102325.03
2022-10-11T23:30:21.691Z,102332.06
2022-10-11T23:35:24.424Z,102334.75
2022-10-11T23:40:27.106Z,102334.94
2022-10-11T23:45:31.167Z,102333.41
2022-10-11T23:50:33.834Z,102336.47
2022-10-11T23:55:36.537Z,102337.94
